createdAt,value
2022-08-28T00:04:51.346Z,-0.003
2022-08-28T00:14:43.360Z,0.386
2022-08-28T00:51:18.333Z,0.173
2022-08-28T01:02:23.569Z,0.608
2022-08-28T01:13:40.681Z,0.593
2022-08-28T01:25:14.060Z,0.31
2022-08-28T01:37:03.381Z,0.204
2022-08-28T01:48:56.589Z,0.433
2022-08-28T02:01:14.645Z,0.423
2022-08-28T02:13:38.822Z,0.727
2022-08-28T02:26:20.085Z,0.676
2022-08-28T02:39:18.815Z,0.836
2022-08-28T02:52:40.588Z,0.793
2022-08-28T03:06:17.695Z,0.723
2022-08-28T03:20:11.752Z,0.843
2022-08-28T03:34:25.606Z,0.952
2022-08-28T03:48:59.900Z,0.814
2022-08-28T04:03:44.593Z,1.012
2022-08-28T04:19:12.124Z,1.353
2022-08-28T04:35:02.814Z,1.835
2022-08-28T04:51:09.096Z,2.629
2022-08-28T05:08:06.404Z,2.546
2022-08-28T05:25:24.680Z,2.007
2022-08-28T05:30:40.604Z,0.027
2022-08-28T05:35:56.375Z,0.058
2022-08-28T05:55:11.256Z,2.456
2022-08-28T06:00:26.946Z,0.054
2022-08-28T06:05:42.595Z,0.08
2022-08-28T06:10:58.381Z,0.031
2022-08-28T06:16:14.958Z,0.062
2022-08-28T06:21:31.500Z,0.046
2022-08-28T06:26:46.349Z,0.079
2022-08-28T06:32:01.576Z,0.03
2022-08-28T06:37:17.146Z,0.031
2022-08-28T06:42:32.387Z,0.048
2022-08-28T06:47:47.458Z,0.052
2022-08-28T06:53:11.217Z,0.043
2022-08-28T06:58:26.058Z,0.041
2022-08-28T07:03:41.820Z,0.071
2022-08-28T07:08:59.840Z,0.058
2022-08-28T07:14:13.931Z,0.03
2022-08-28T07:19:27.726Z,0.047
2022-08-28T07:24:41.476Z,0.059
2022-08-28T07:29:54.857Z,0.07
2022-08-28T07:35:08.421Z,0.082
2022-08-28T07:40:21.908Z,0.029
2022-08-28T07:45:35.270Z,0.076
2022-08-28T07:50:48.490Z,0.036
2022-08-28T07:56:01.281Z,0.063
2022-08-28T08:01:14.182Z,0.062
2022-08-28T08:06:28.023Z,0.062
2022-08-28T08:11:51.097Z,0.047
2022-08-28T08:17:03.553Z,0.034
2022-08-28T08:22:21.573Z,0.008
2022-08-28T08:27:34.005Z,0.052
2022-08-28T08:32:47.026Z,0.049
2022-08-28T08:38:02.745Z,0.053
2022-08-28T08:43:23.168Z,0.012
2022-08-28T08:48:35.625Z,0.014
2022-08-28T08:53:47.968Z,-0.013
2022-08-28T08:59:00.195Z,0.034
2022-08-28T09:04:13.301Z,0.018
2022-08-28T09:09:31.721Z,0.056
2022-08-28T09:14:44.178Z,0.015
2022-08-28T09:19:56.665Z,0.031
2022-08-28T09:25:09.138Z,0.05
2022-08-28T09:30:30.955Z,0.021
2022-08-28T09:35:43.562Z,0.037
2022-08-28T09:40:55.941Z,0.015
2022-08-28T09:46:08.486Z,0.016
2022-08-28T09:51:21.155Z,0.01
2022-08-28T09:56:33.501Z,0.023
2022-08-28T10:01:45.944Z,0.026
2022-08-28T10:06:58.603Z,0.016
2022-08-28T10:12:10.921Z,0.02
2022-08-28T10:17:23.266Z,0.026
2022-08-28T10:22:35.586Z,0.027
2022-08-28T10:27:48.077Z,0.02
2022-08-28T10:33:00.546Z,-0.022
2022-08-28T10:38:12.998Z,0.045
2022-08-28T10:43:26.139Z,0.05
2022-08-28T10:48:38.797Z,0.037
2022-08-28T10:53:51.167Z,0.055
2022-08-28T10:59:03.599Z,0.049
2022-08-28T11:04:20.760Z,0.031
2022-08-28T11:09:35.817Z,0.031
2022-08-28T11:14:48.929Z,0.067
2022-08-28T11:20:01.444Z,0.071
2022-08-28T11:25:14.256Z,0.32
2022-08-28T11:30:28.137Z,0.136
2022-08-28T11:51:11.985Z,-0.027
2022-08-28T11:56:30.535Z,-0.035
2022-08-28T12:01:48.256Z,-0.014
2022-08-28T12:07:00.615Z,0.023
2022-08-28T12:12:13.095Z,-0.017
2022-08-28T12:17:29.236Z,0.008
2022-08-28T12:22:44.421Z,0.015
2022-08-28T12:27:56.854Z,0.014
2022-08-28T12:33:09.363Z,0.001
2022-08-28T12:48:42.975Z,0.018
2022-08-28T12:53:55.685Z,0.021
2022-08-28T12:59:08.233Z,0.021
2022-08-28T13:04:21.137Z,0.04
2022-08-28T13:09:34.973Z,0.083
2022-08-28T13:14:47.593Z,0.053
2022-08-28T13:20:00.394Z,0.166
2022-08-28T13:25:12.930Z,-0.034
2022-08-28T13:35:38.141Z,0.015
2022-08-28T13:46:01.082Z,-0.038
2022-08-28T13:51:20.199Z,0.021
2022-08-28T13:56:36.665Z,0.018
2022-08-28T14:01:49.602Z,0.009
2022-08-28T14:07:03.861Z,0.022
2022-08-28T14:12:16.230Z,0.004
2022-08-28T14:17:28.673Z,0.025
2022-08-28T14:22:41.340Z,-0.01
2022-08-28T14:27:53.669Z,-0.029
2022-08-28T14:33:06.193Z,0.178
2022-08-28T14:38:19.329Z,0.153
2022-08-28T14:48:42.886Z,0.051
2022-08-28T14:53:54.986Z,0.111
2022-08-28T14:59:09.407Z,-0.021
2022-08-28T15:04:33.621Z,0.049
2022-08-28T15:09:46.006Z,0.008
2022-08-28T15:14:58.387Z,0.064
2022-08-28T15:30:30.656Z,0.036
2022-08-28T15:46:02.918Z,0.061
2022-08-28T15:51:15.555Z,-0.034
2022-08-28T15:56:28.313Z,0.042
2022-08-28T16:12:01.596Z,-0.048
2022-08-28T16:22:24.542Z,-0.023
2022-08-28T16:27:36.858Z,0.045
2022-08-28T16:32:51.521Z,0.041
2022-08-28T16:38:05.909Z,-0.022
2022-08-28T16:43:18.271Z,-0.02
2022-08-28T16:48:30.957Z,0.018
2022-08-28T16:53:43.594Z,-0.005
2022-08-28T16:58:56.568Z,-0.014
2022-08-28T17:09:21.076Z,0.006
2022-08-28T17:19:48.158Z,0.029
2022-08-28T17:25:00.546Z,-0.021
2022-08-28T17:30:13.158Z,-0.047
2022-08-28T17:35:25.397Z,-0.022
2022-08-28T17:40:37.706Z,-0.033
2022-08-28T17:45:50.257Z,0.006
2022-08-28T17:51:02.473Z,-0.03
2022-08-28T17:56:14.658Z,0.002
2022-08-28T18:01:26.936Z,-0.038
2022-08-28T18:11:49.218Z,-0.018
2022-08-28T18:17:01.613Z,-0.026
2022-08-28T18:22:14.729Z,0.003
2022-08-28T18:27:27.707Z,-0.018
2022-08-28T18:32:40.025Z,0.006
2022-08-28T18:37:54.160Z,-0.03
2022-08-28T18:43:06.414Z,0.01
2022-08-28T18:48:18.470Z,0.012
2022-08-28T18:58:54.586Z,0.004
2022-08-28T19:04:07.116Z,-0.034
2022-08-28T19:09:20.679Z,0.015
2022-08-28T19:14:32.785Z,0.021
2022-08-28T19:19:45.647Z,0.012
2022-08-28T19:24:59.056Z,0.008
2022-08-28T19:30:11.357Z,0.004
2022-08-28T19:35:24.363Z,0.006
2022-08-28T19:40:37.273Z,0.001
2022-08-28T19:45:50.242Z,-0.006
2022-08-28T19:51:05.345Z,-0.001
2022-08-28T19:56:32.065Z,-0.001
2022-08-28T20:01:44.406Z,-0.011
2022-08-28T20:06:57.018Z,0.015
2022-08-28T20:12:09.854Z,0.023
2022-08-28T20:17:22.205Z,-0.002
2022-08-28T20:22:34.756Z,0.008
2022-08-28T20:27:53.506Z,0
2022-08-28T20:33:14.727Z,-0.005
2022-08-28T20:38:33.225Z,0.01
2022-08-28T20:43:45.985Z,0.001
2022-08-28T20:48:58.596Z,0.003
2022-08-28T20:54:10.855Z,-0.019
2022-08-28T20:59:23.454Z,-0.006
2022-08-28T21:04:48.761Z,-0.007
2022-08-28T21:10:06.492Z,0.007
2022-08-28T21:15:21.185Z,-0.006
2022-08-28T21:20:33.614Z,0.002
2022-08-28T21:25:46.046Z,0.003
2022-08-28T21:30:58.901Z,0.003
2022-08-28T21:36:11.934Z,-0.001
2022-08-28T21:41:24.454Z,0
2022-08-28T21:46:36.727Z,0
2022-08-28T21:51:49.408Z,0.01
2022-08-28T21:57:01.907Z,0.009
2022-08-28T22:02:14.412Z,-0.001
2022-08-28T22:07:27.190Z,0.008
2022-08-28T22:12:39.479Z,-0.017
2022-08-28T22:17:51.999Z,0.017
2022-08-28T22:23:04.489Z,0.011
2022-08-28T22:28:16.827Z,0.01
2022-08-28T22:33:29.328Z,0.013
2022-08-28T22:38:41.699Z,-0.021
2022-08-28T22:44:03.048Z,0.027
2022-08-28T22:49:15.367Z,-0.023
2022-08-28T22:54:27.736Z,0.029
2022-08-28T22:59:40.028Z,-0.008
2022-08-28T23:04:52.411Z,0.047
2022-08-28T23:10:04.757Z,-0.027
2022-08-28T23:15:16.992Z,0.032
2022-08-28T23:20:29.193Z,-0.02
2022-08-28T23:25:41.300Z,0.037
2022-08-28T23:30:53.458Z,0.008
2022-08-28T23:36:05.513Z,0.011
2022-08-28T23:41:18.120Z,0.007
2022-08-28T23:46:32.475Z,0.009
2022-08-28T23:51:44.572Z,0.012
2022-08-28T23:56:57.770Z,0.002
